createdAt,value
2022-12-06T03:26:10.122Z,52.50
2022-12-06T03:27:15.040Z,52.58
2022-12-06T03:28:17.187Z,52.61
2022-12-06T03:29:20.669Z,52.52
2022-12-06T03:30:22.856Z,52.37
2022-12-06T03:31:25.362Z,52.19
2022-12-06T03:32:30.590Z,51.71
2022-12-06T03:33:33.023Z,51.71
2022-12-06T03:34:38.416Z,51.31
2022-12-06T03:35:41.238Z,50.95
2022-12-06T03:36:44.995Z,50.58
2022-12-06T03:37:51.417Z,50.25
2022-12-06T03:38:55.572Z,49.91
2022-12-06T03:40:08.425Z,49.53
2022-12-06T03:41:10.558Z,49.24
2022-12-06T03:42:12.664Z,48.88
2022-12-06T03:43:14.764Z,48.56
2022-12-06T03:44:17.459Z,48.38
2022-12-06T03:45:20.173Z,48.15
2022-12-06T03:47:58.692Z,47.61
2022-12-06T03:50:25.028Z,47.33
2022-12-06T03:51:30.195Z,47.22
2022-12-06T03:52:33.397Z,47.25
2022-12-06T03:53:38.418Z,47.22
2022-12-06T03:54:41.971Z,47.18
2022-12-06T03:55:44.481Z,47.13
2022-12-06T03:56:46.663Z,47.14
2022-12-06T03:57:48.786Z,47.13
2022-12-06T03:58:50.872Z,47.17
2022-12-06T04:00:07.497Z,47.17
2022-12-06T04:01:11.924Z,47.18
2022-12-06T04:02:14.434Z,47.08
2022-12-06T04:03:17.936Z,47.03
2022-12-06T04:04:20.317Z,46.91
2022-12-06T04:05:22.549Z,46.85
2022-12-06T04:06:25.022Z,46.76
2022-12-06T04:07:27.008Z,46.64
2022-12-06T04:08:29.089Z,46.46
2022-12-06T04:09:31.204Z,46.36
2022-12-06T04:10:33.435Z,46.22
2022-12-06T04:11:35.969Z,46.04
2022-12-06T04:12:38.838Z,45.86
2022-12-06T04:13:41.896Z,45.66
2022-12-06T04:14:44.146Z,45.43
2022-12-06T04:15:46.790Z,45.34
2022-12-06T04:16:49.752Z,45.26
2022-12-06T04:17:52.183Z,45.14
2022-12-06T04:18:54.771Z,45.01
2022-12-06T04:19:57.217Z,44.88
2022-12-06T04:21:02.854Z,44.83
2022-12-06T04:22:05.027Z,44.78
2022-12-06T04:23:07.475Z,44.76
2022-12-06T04:24:09.593Z,44.72
2022-12-06T04:25:12.097Z,44.86
2022-12-06T04:26:17.603Z,44.87
2022-12-06T04:27:20.948Z,44.89
2022-12-06T04:28:23.078Z,44.97
2022-12-06T04:29:25.175Z,45.00
2022-12-06T04:30:27.709Z,45.00
2022-12-06T04:31:30.846Z,45.00
2022-12-06T04:32:33.274Z,45.03
2022-12-06T04:33:35.324Z,45.05
2022-12-06T04:34:37.452Z,45.09
2022-12-06T04:35:39.504Z,45.10
2022-12-06T04:36:42.655Z,45.19
2022-12-06T04:37:45.454Z,45.19
2022-12-06T04:38:48.058Z,45.22
2022-12-06T04:39:51.031Z,45.25
2022-12-06T04:40:53.226Z,45.26
2022-12-06T04:41:58.389Z,45.27
2022-12-06T04:43:00.561Z,45.30
2022-12-06T04:44:04.811Z,45.28
2022-12-06T04:45:08.425Z,45.32
2022-12-06T04:46:12.245Z,45.32
2022-12-06T04:47:15.497Z,45.31
2022-12-06T04:48:17.854Z,45.26
2022-12-06T04:49:20.560Z,45.30
2022-12-06T04:50:22.831Z,45.27
2022-12-06T04:51:25.171Z,45.32
2022-12-06T04:52:34.056Z,45.35
2022-12-06T04:53:32.524Z,45.31
2022-12-06T04:54:34.921Z,45.31
2022-12-06T04:55:37.002Z,45.32
2022-12-06T04:56:39.072Z,45.31
2022-12-06T04:57:41.239Z,45.36
2022-12-06T04:58:43.884Z,45.34
2022-12-06T04:59:45.937Z,45.35
2022-12-06T05:00:52.649Z,45.34
2022-12-06T05:01:56.303Z,45.35
2022-12-06T05:02:58.462Z,45.34
2022-12-06T05:04:01.482Z,45.36
2022-12-06T05:05:05.107Z,45.34
2022-12-06T05:06:08.985Z,45.39
2022-12-06T05:07:11.445Z,45.39
2022-12-06T05:08:13.892Z,45.42
2022-12-06T05:09:16.415Z,45.43
2022-12-06T05:10:19.809Z,45.43
2022-12-06T05:11:22.141Z,45.47
2022-12-06T05:12:24.419Z,45.50
2022-12-06T05:13:26.625Z,45.50
2022-12-06T05:14:29.196Z,45.50
2022-12-06T05:15:31.516Z,45.52
2022-12-06T05:16:34.583Z,45.50
2022-12-06T05:17:36.971Z,45.54
2022-12-06T05:18:39.260Z,45.54
2022-12-06T05:19:42.027Z,45.54
2022-12-06T05:20:45.292Z,45.56
2022-12-06T05:21:47.949Z,45.57
2022-12-06T05:22:50.357Z,45.55
2022-12-06T05:23:54.455Z,45.59
2022-12-06T05:24:56.667Z,45.58
2022-12-06T05:27:12.855Z,45.61
2022-12-06T05:28:15.316Z,45.64
2022-12-06T05:29:17.598Z,45.95
2022-12-06T05:30:20.084Z,45.95
2022-12-06T05:31:22.429Z,45.62
2022-12-06T05:32:24.706Z,45.64
2022-12-06T05:33:27.215Z,45.62
2022-12-06T05:34:30.840Z,45.64
2022-12-06T05:35:33.987Z,45.67
2022-12-06T05:36:36.620Z,45.67
2022-12-06T05:37:38.981Z,45.65
2022-12-06T05:38:41.744Z,45.68
2022-12-06T05:39:44.703Z,45.71
2022-12-06T05:40:47.091Z,45.73
2022-12-06T05:41:49.778Z,45.70
2022-12-06T05:42:53.022Z,45.75
2022-12-06T05:43:56.001Z,45.76
2022-12-06T05:44:57.986Z,45.79
2022-12-06T05:46:00.276Z,45.82
2022-12-06T05:47:02.575Z,45.81
2022-12-06T05:48:05.575Z,45.84
2022-12-06T05:49:07.902Z,45.85
2022-12-06T05:50:10.903Z,45.85
2022-12-06T05:51:13.096Z,45.85
2022-12-06T05:52:15.891Z,45.90
2022-12-06T05:53:18.726Z,45.85
2022-12-06T05:54:21.676Z,45.84
2022-12-06T05:55:24.123Z,45.84
2022-12-06T05:56:27.099Z,45.83
2022-12-06T05:57:29.691Z,45.83
2022-12-06T05:58:32.545Z,45.86
2022-12-06T05:59:39.918Z,45.85
2022-12-06T06:00:47.593Z,45.86
2022-12-06T06:01:50.401Z,45.87
2022-12-06T06:02:52.773Z,45.89
2022-12-06T06:03:55.104Z,45.89
2022-12-06T06:04:57.678Z,45.89
2022-12-06T06:06:00.109Z,45.89
2022-12-06T06:07:02.457Z,45.92
2022-12-06T06:08:05.192Z,45.93
2022-12-06T06:09:07.744Z,45.94
2022-12-06T06:10:10.803Z,45.96
2022-12-06T06:11:13.804Z,45.96
2022-12-06T10:40:04.188Z,48.47
2022-12-06T10:41:25.238Z,48.96
2022-12-06T10:42:31.168Z,49.44
2022-12-06T10:43:56.813Z,49.24
2022-12-06T10:45:10.100Z,49.22
2022-12-06T10:47:42.387Z,49.25
2022-12-06T10:49:11.249Z,49.31
2022-12-06T10:50:22.089Z,49.15
2022-12-06T10:51:27.855Z,48.51
2022-12-06T10:52:39.984Z,48.04
2022-12-06T10:53:45.410Z,47.43
2022-12-06T10:56:20.845Z,45.93
2022-12-06T10:58:46.983Z,45.11
2022-12-06T11:00:08.044Z,45.17
2022-12-06T11:02:38.558Z,44.69
2022-12-06T11:03:49.155Z,44.46
2022-12-06T11:04:52.638Z,44.54
2022-12-06T11:05:59.397Z,44.40
2022-12-06T11:07:15.458Z,44.33
2022-12-06T11:09:40.464Z,44.02
2022-12-06T11:10:44.855Z,43.89
2022-12-06T11:11:48.236Z,43.99
2022-12-06T11:14:25.092Z,43.74
2022-12-06T11:15:30.873Z,43.46
2022-12-06T11:16:44.887Z,43.46
2022-12-06T11:18:12.823Z,43.29
2022-12-06T11:19:36.315Z,43.22
2022-12-06T11:20:41.247Z,43.09
2022-12-06T11:21:49.935Z,43.01
2022-12-06T11:24:09.623Z,43.04
2022-12-06T11:25:18.742Z,42.84
2022-12-06T11:26:33.407Z,42.51
2022-12-06T11:27:39.704Z,42.44
2022-12-06T11:28:44.444Z,42.23
2022-12-06T11:29:47.805Z,41.98
2022-12-06T11:32:07.375Z,41.67
2022-12-06T11:33:10.710Z,41.40
2022-12-06T11:35:49.856Z,41.25
2022-12-06T11:36:58.358Z,41.03
2022-12-06T11:37:59.525Z,40.84
2022-12-06T11:39:02.238Z,40.66
2022-12-06T11:41:23.500Z,40.38
2022-12-06T11:42:26.829Z,40.22
2022-12-06T11:43:30.472Z,39.96
2022-12-06T11:45:57.512Z,39.52
2022-12-06T11:47:01.205Z,38.30
2022-12-06T11:48:18.858Z,38.61
2022-12-06T11:49:24.837Z,38.69
2022-12-06T11:50:28.643Z,38.79
2022-12-06T11:51:30.808Z,38.98
2022-12-06T11:52:38.374Z,38.66
2022-12-06T11:55:08.572Z,39.74
2022-12-06T11:56:23.034Z,39.49
2022-12-06T11:57:28.990Z,39.34
2022-12-06T11:58:36.727Z,39.23
2022-12-06T11:59:38.864Z,39.12
2022-12-06T12:02:18.074Z,39.17
2022-12-06T12:03:25.987Z,38.97
2022-12-06T12:04:43.177Z,38.92
2022-12-06T12:05:46.248Z,38.93
2022-12-06T12:06:54.693Z,38.93
2022-12-06T12:08:02.508Z,39.03
2022-12-06T12:09:05.059Z,38.69
2022-12-06T12:10:23.259Z,38.78
2022-12-06T12:12:45.074Z,38.73
2022-12-06T12:13:51.768Z,38.63
2022-12-06T12:14:56.099Z,38.65
2022-12-06T12:17:17.463Z,38.60
2022-12-06T12:19:52.752Z,38.55
2022-12-06T12:20:56.803Z,38.57
2022-12-06T12:21:59.742Z,38.61
2022-12-06T12:23:03.809Z,38.54
2022-12-06T12:24:08.632Z,38.78
2022-12-06T12:25:31.428Z,38.95
2022-12-06T12:27:54.496Z,39.55
2022-12-06T12:29:09.614Z,39.81
2022-12-06T12:30:18.927Z,40.27
2022-12-06T12:31:23.019Z,40.19
2022-12-06T12:32:25.396Z,40.31
2022-12-06T12:33:28.390Z,40.32
2022-12-06T12:34:30.859Z,40.08
2022-12-06T12:35:34.768Z,39.92
2022-12-06T12:36:38.558Z,39.46
2022-12-06T12:37:40.764Z,39.33
2022-12-06T12:38:57.639Z,39.28
2022-12-06T12:40:09.037Z,39.74
2022-12-06T12:41:23.031Z,39.93
2022-12-06T12:42:30.395Z,39.76
2022-12-06T12:43:32.821Z,39.63
2022-12-06T12:44:38.738Z,39.53
2022-12-06T12:47:19.650Z,39.64
2022-12-06T12:48:26.456Z,39.80
2022-12-06T12:50:55.267Z,40.18
2022-12-06T12:51:57.640Z,40.08
2022-12-06T12:53:00.947Z,40.06
2022-12-06T12:54:21.874Z,39.99
2022-12-06T12:55:26.694Z,39.99
2022-12-06T12:56:31.214Z,39.77
2022-12-06T12:57:33.369Z,39.93
2022-12-06T12:58:36.537Z,39.98
2022-12-06T12:59:39.980Z,39.98
2022-12-06T13:00:46.188Z,40.01
2022-12-06T13:01:58.161Z,40.02
2022-12-06T13:03:35.046Z,40.00
2022-12-06T13:05:46.972Z,39.91
2022-12-06T13:07:02.210Z,39.73
2022-12-06T13:08:13.069Z,39.67
2022-12-06T13:10:39.095Z,39.59
2022-12-06T13:11:46.802Z,39.41
2022-12-06T13:14:03.855Z,39.19
2022-12-06T13:15:18.116Z,39.47
2022-12-06T13:16:26.714Z,39.42
2022-12-06T13:17:29.988Z,39.53
2022-12-06T13:18:42.326Z,39.59
2022-12-06T13:19:59.554Z,39.14
2022-12-06T13:20:52.139Z,39.27
2022-12-06T13:21:54.453Z,38.84
2022-12-06T13:23:01.333Z,39.38
2022-12-06T13:24:13.740Z,38.99
2022-12-06T13:25:16.541Z,39.25
2022-12-06T13:26:28.468Z,39.31
2022-12-06T13:27:34.044Z,39.28
2022-12-06T13:28:39.805Z,38.63
2022-12-06T13:29:55.070Z,38.02
2022-12-06T13:31:08.399Z,38.98
2022-12-06T13:33:29.005Z,38.82
2022-12-06T13:34:39.324Z,38.71
2022-12-06T13:35:45.179Z,37.79
2022-12-06T13:36:48.298Z,38.25
2022-12-06T13:37:54.324Z,38.55
2022-12-06T13:38:57.947Z,37.96
2022-12-06T13:40:00.768Z,38.04
2022-12-06T13:42:24.963Z,38.04
2022-12-06T13:43:35.073Z,37.68
2022-12-06T13:46:10.346Z,37.57
2022-12-06T13:47:31.513Z,37.63
2022-12-06T13:48:57.742Z,37.53
2022-12-06T13:50:05.173Z,36.46
2022-12-06T13:51:12.060Z,36.79
2022-12-06T13:54:16.178Z,37.32
2022-12-06T13:55:27.988Z,37.24
2022-12-06T13:56:35.864Z,37.03
2022-12-06T13:57:38.585Z,36.29
2022-12-06T13:58:41.664Z,36.56
2022-12-06T13:59:45.465Z,36.71
2022-12-06T14:00:49.778Z,37.00
2022-12-06T14:01:55.082Z,36.81
2022-12-06T14:03:19.545Z,37.00
2022-12-06T14:08:16.127Z,36.92
2022-12-06T14:09:18.889Z,37.01
2022-12-06T14:10:22.900Z,36.80
2022-12-06T14:11:26.514Z,36.80
2022-12-06T14:12:29.779Z,37.17
2022-12-06T14:13:31.838Z,37.42
2022-12-06T14:14:35.245Z,37.20
2022-12-06T14:15:38.173Z,37.21
2022-12-06T14:16:47.400Z,37.21
2022-12-06T14:18:12.590Z,37.50
2022-12-06T14:18:53.770Z,37.41
2022-12-06T14:19:56.862Z,37.60
2022-12-06T14:20:59.727Z,37.68
2022-12-06T14:22:05.845Z,37.57
2022-12-06T14:24:40.623Z,37.53
2022-12-06T14:25:42.764Z,37.02
2022-12-06T14:26:45.196Z,37.62
2022-12-06T14:27:50.640Z,37.06
2022-12-06T14:28:54.776Z,36.82
2022-12-06T14:30:00.114Z,36.80
2022-12-06T14:31:06.981Z,36.91
2022-12-06T14:32:09.189Z,36.88
2022-12-06T14:33:20.363Z,36.81
2022-12-06T14:36:00.664Z,36.63
2022-12-06T14:37:19.158Z,36.65
2022-12-06T14:38:30.884Z,36.79
2022-12-06T14:39:34.336Z,36.89
2022-12-06T18:18:36.412Z,52.00
2022-12-06T18:19:39.634Z,52.07
2022-12-06T18:20:42.397Z,52.07
2022-12-06T18:21:45.175Z,51.93
2022-12-06T18:22:47.614Z,51.67
2022-12-06T18:24:19.788Z,51.47
2022-12-06T18:24:55.184Z,51.15
2022-12-06T18:26:02.387Z,50.75
2022-12-06T18:27:05.175Z,50.45
2022-12-06T18:28:07.933Z,50.13
2022-12-06T18:30:44.439Z,49.33
2022-12-06T18:31:47.958Z,48.89
2022-12-06T18:32:52.044Z,48.73
2022-12-06T18:33:58.620Z,48.33
2022-12-06T18:35:01.549Z,48.02
2022-12-06T18:36:05.873Z,47.81
2022-12-06T18:37:08.775Z,47.53
2022-12-06T18:38:14.226Z,47.28
2022-12-06T18:39:17.739Z,47.00
2022-12-06T18:40:20.308Z,46.80
2022-12-06T18:41:22.594Z,46.62
2022-12-06T18:42:26.210Z,46.44
2022-12-06T18:43:28.598Z,46.31
2022-12-06T18:44:30.744Z,46.10
2022-12-06T18:45:33.348Z,45.96
2022-12-06T18:46:36.149Z,45.80
2022-12-06T18:47:38.768Z,45.67
2022-12-06T18:48:42.463Z,45.55
2022-12-06T18:49:46.952Z,45.40
2022-12-06T18:50:49.807Z,45.23
2022-12-06T18:51:52.012Z,45.12
2022-12-06T18:52:55.520Z,45.00
2022-12-06T18:53:59.363Z,44.89
2022-12-06T18:55:02.928Z,44.80
2022-12-06T18:56:11.374Z,44.69
2022-12-06T18:57:14.927Z,44.59
2022-12-06T18:58:17.623Z,44.50
2022-12-06T18:59:25.942Z,44.38
2022-12-06T19:00:26.102Z,44.28
2022-12-06T19:01:30.925Z,44.16
2022-12-06T19:02:35.260Z,44.05
2022-12-06T19:03:37.563Z,44.01
2022-12-06T19:04:39.889Z,43.95
2022-12-06T19:06:01.785Z,43.94
2022-12-06T19:06:46.393Z,43.86
2022-12-06T19:07:52.095Z,43.82
2022-12-06T19:08:56.704Z,43.84
2022-12-06T19:09:59.599Z,43.83
2022-12-06T19:11:01.981Z,43.78
2022-12-06T19:12:04.433Z,43.73
2022-12-06T19:13:06.534Z,42.91
2022-12-06T19:14:09.290Z,42.65
2022-12-06T19:15:11.463Z,42.10
2022-12-06T19:16:15.969Z,41.80
2022-12-06T19:17:19.360Z,41.71
2022-12-06T19:18:21.589Z,41.56
2022-12-06T19:19:24.775Z,41.36
2022-12-06T19:20:29.345Z,41.17
2022-12-06T19:21:33.584Z,41.29
2022-12-06T19:22:36.721Z,40.41
2022-12-06T19:23:39.471Z,40.97
2022-12-06T19:24:41.930Z,40.96
2022-12-06T19:25:44.013Z,40.50
2022-12-06T19:26:46.418Z,40.26
2022-12-06T19:27:48.968Z,40.45
2022-12-06T19:28:52.231Z,39.15
2022-12-06T19:29:54.866Z,39.01
2022-12-06T19:32:31.900Z,39.06
2022-12-06T19:33:35.758Z,39.28
2022-12-06T19:34:38.245Z,38.66
2022-12-06T19:35:41.383Z,38.77
2022-12-06T19:36:44.064Z,39.19
2022-12-06T19:37:46.621Z,39.22
2022-12-06T19:38:51.238Z,38.14
2022-12-06T19:39:54.920Z,39.69
2022-12-06T19:40:58.375Z,39.05
2022-12-06T19:42:00.632Z,38.50
2022-12-06T19:43:03.886Z,38.77
2022-12-06T19:44:07.282Z,38.42
2022-12-06T19:45:10.423Z,37.64
2022-12-06T19:46:16.114Z,37.82
2022-12-06T19:48:51.403Z,38.07
2022-12-06T19:49:54.120Z,37.82
2022-12-06T19:51:02.168Z,37.38
2022-12-06T19:52:04.340Z,36.86
2022-12-06T19:53:08.037Z,37.32
2022-12-06T19:54:11.038Z,37.27
2022-12-06T19:55:13.733Z,36.57
2022-12-06T19:56:15.854Z,36.79
2022-12-06T19:57:19.855Z,37.24
2022-12-06T19:58:22.056Z,36.86
2022-12-06T19:59:27.317Z,36.05
2022-12-06T20:00:30.413Z,36.05
2022-12-06T20:01:33.616Z,37.30
2022-12-06T20:02:36.687Z,36.32
2022-12-06T20:03:40.791Z,36.16
2022-12-06T20:04:43.895Z,36.38
2022-12-06T20:05:46.013Z,36.33
2022-12-06T20:06:49.485Z,36.69
2022-12-06T20:07:52.316Z,35.63
2022-12-06T20:08:58.672Z,35.53
2022-12-06T20:10:02.039Z,37.36
2022-12-06T20:11:06.358Z,37.31
2022-12-06T20:12:09.035Z,36.75
2022-12-06T20:13:11.275Z,36.53
2022-12-06T20:14:15.274Z,36.25
2022-12-06T20:15:18.622Z,35.89
2022-12-06T20:16:20.942Z,36.28
2022-12-06T20:17:23.228Z,36.46
2022-12-06T20:18:27.400Z,35.62
2022-12-06T20:19:31.259Z,36.17
2022-12-06T20:20:36.136Z,35.94
2022-12-06T20:21:38.338Z,35.65
2022-12-06T20:22:41.495Z,35.94
2022-12-06T20:23:43.660Z,35.96
2022-12-06T20:24:46.291Z,36.16
2022-12-06T20:25:48.689Z,36.26
2022-12-06T20:26:53.420Z,35.47
2022-12-06T20:27:55.566Z,35.16
2022-12-06T20:28:58.733Z,36.13
2022-12-06T20:30:01.374Z,35.78
2022-12-06T20:31:13.326Z,36.14
2022-12-06T20:32:16.172Z,36.12
2022-12-06T20:33:21.045Z,35.57
2022-12-06T20:34:24.384Z,35.21
2022-12-06T20:35:27.671Z,35.30
2022-12-06T20:36:30.488Z,36.16
2022-12-06T20:37:32.629Z,35.47
2022-12-06T20:38:34.814Z,35.47
2022-12-06T20:39:36.906Z,35.72
2022-12-06T20:40:39.530Z,34.37
2022-12-06T20:41:42.600Z,35.73
2022-12-06T20:42:45.211Z,35.73
2022-12-06T20:43:48.386Z,35.71
2022-12-06T20:44:51.579Z,35.71
2022-12-06T20:45:53.972Z,35.15
2022-12-06T20:46:57.556Z,35.51
2022-12-06T20:47:59.880Z,36.50
2022-12-06T20:49:01.992Z,36.50
2022-12-06T20:50:05.761Z,35.94
2022-12-06T20:51:09.791Z,35.81
2022-12-06T20:52:11.942Z,34.84
2022-12-06T20:53:15.211Z,34.93
2022-12-06T20:54:19.081Z,35.75
2022-12-06T20:55:21.196Z,35.51
2022-12-06T20:56:24.335Z,35.50
2022-12-06T21:00:25.515Z,36.17
2022-12-06T21:01:40.415Z,35.03
2022-12-06T21:02:43.972Z,35.00
2022-12-06T21:03:50.750Z,35.65
2022-12-06T21:04:55.159Z,34.82
2022-12-06T21:07:11.106Z,35.47
2022-12-06T21:08:13.242Z,35.87
2022-12-06T21:09:16.073Z,35.24
2022-12-06T21:10:18.756Z,35.36
2022-12-06T21:11:23.290Z,35.78
2022-12-06T21:12:25.894Z,35.67
2022-12-06T21:13:29.351Z,35.76
2022-12-06T21:14:31.526Z,34.82
2022-12-06T21:15:34.730Z,35.47
2022-12-06T21:16:37.700Z,35.01
2022-12-06T21:17:41.367Z,35.41
2022-12-06T21:18:45.049Z,35.36
2022-12-06T21:19:47.672Z,33.93
2022-12-06T21:20:50.813Z,34.01
2022-12-06T21:21:53.167Z,34.87
2022-12-06T21:22:55.367Z,35.50
2022-12-06T21:24:00.933Z,34.40
2022-12-06T21:25:07.404Z,33.55
2022-12-06T21:26:10.322Z,34.24
2022-12-06T21:27:27.691Z,33.89
2022-12-06T21:28:30.554Z,34.26
2022-12-06T21:29:33.223Z,33.15
2022-12-06T21:30:35.790Z,33.86
2022-12-06T21:31:38.454Z,34.77
2022-12-06T21:32:41.231Z,34.34
2022-12-06T21:33:43.321Z,33.72
2022-12-06T21:34:46.861Z,34.30
2022-12-06T21:35:50.687Z,35.36
2022-12-06T21:36:52.957Z,34.14
2022-12-06T21:37:55.073Z,33.66
2022-12-06T21:38:57.555Z,35.37
2022-12-06T21:40:00.926Z,33.96
2022-12-06T21:41:05.352Z,33.67
2022-12-06T21:42:08.547Z,33.16
2022-12-06T21:43:10.679Z,33.61
2022-12-06T21:44:12.687Z,33.64
2022-12-06T21:45:14.829Z,34.63
2022-12-06T21:46:22.371Z,35.23
2022-12-06T21:47:25.696Z,33.87
2022-12-06T21:48:27.842Z,33.41
2022-12-06T21:49:30.896Z,33.06
2022-12-06T21:50:33.728Z,33.94
2022-12-06T21:51:36.032Z,33.47
2022-12-06T21:52:38.158Z,33.49
2022-12-06T21:53:40.772Z,34.96
2022-12-06T21:54:43.151Z,33.42
2022-12-06T21:55:45.819Z,33.49
2022-12-06T21:56:49.057Z,34.12
2022-12-06T21:57:51.534Z,33.26
2022-12-06T21:58:53.965Z,34.31
2022-12-06T21:59:56.088Z,33.31
2022-12-06T22:02:17.289Z,34.47
2022-12-06T22:03:23.183Z,33.46
2022-12-06T22:04:26.031Z,33.52
2022-12-06T22:05:28.632Z,33.64
2022-12-06T22:06:31.492Z,33.46
2022-12-06T22:07:34.993Z,33.33
2022-12-06T22:08:39.315Z,34.04
2022-12-06T22:09:42.091Z,34.03
2022-12-06T22:11:56.858Z,39.88
2022-12-06T22:13:00.776Z,35.08
2022-12-06T22:14:02.920Z,33.98
2022-12-06T22:15:07.139Z,34.21
2022-12-06T22:16:10.981Z,34.87
2022-12-06T22:17:14.426Z,34.87
2022-12-06T22:18:16.570Z,34.35
